Terminal Aerodrome Forecast
Issued by NWS

Home | Current Version | Previous Version | Text Only | Print | Product List | Glossary On
Versions: 1 2 3 4 5 6 7 8 9 10 11 12 13 14
119
FTUS45 KPIH 222337
TAFSUN
TAF
KSUN 222337Z 2300/2406 VRB06KT P6SM SKC
     FM230400 31010KT P6SM SCT120
     FM231800 13008KT P6SM VCTS SCT060CB OVC150
     FM240400 31007KT P6SM VCSH OVC080
      AMD LTD TO CLD VIS AND WIND 2305/2313=

USA.gov is the U.S. government's official web portal to all federal, state and local government web resources and services.